Time;durP1;ratioP1;P1;durP2;ratioP2;P2;SDS_P1;SDS_P2;PMS_P1;PMS_P2;Temp;Humidity;BMP_temperature;BMP_pressure;BME280_temperature;BME280_humidity;BME280_pressure;Samples;Min_cycle;Max_cycle;Signal;HPM_P1;HPM_P2
2021/10/11 00:00:45;;;;;;;4.07;2.10;;;;;;;;;;6191951;23;20021;-79
2021/10/11 00:03:49;;;;;;;3.83;2.00;;;;;;;;;;6193133;23;20013;-79
2021/10/11 00:06:53;;;;;;;4.78;2.00;;;;;;;;;;6192993;23;20025;-79
2021/10/11 00:09:58;;;;;;;4.03;1.80;;;;;;;;;;6192734;23;20013;-79
2021/10/11 00:13:03;;;;;;;3.35;2.00;;;;;;;;;;6193072;23;20017;-80
2021/10/11 00:16:07;;;;;;;4.95;2.08;;;;;;;;;;6193041;23;20013;-79
2021/10/11 00:19:11;;;;;;;3.45;1.90;;;;;;;;;;6191323;23;20017;-77
2021/10/11 00:22:15;;;;;;;9.15;2.15;;;;;;;;;;6184427;23;20028;-80
2021/10/11 00:25:20;;;;;;;3.30;2.30;;;;;;;;;;6193087;23;20009;-80
2021/10/11 00:28:24;;;;;;;3.30;2.22;;;;;;;;;;6192879;23;20021;-80
2021/10/11 00:31:29;;;;;;;6.85;2.40;;;;;;;;;;6192643;23;20013;-79
2021/10/11 00:34:33;;;;;;;3.75;2.25;;;;;;;;;;6193046;23;20013;-80
2021/10/11 00:37:37;;;;;;;3.10;1.90;;;;;;;;;;6194772;23;20009;-80
2021/10/11 00:40:43;;;;;;;3.33;2.30;;;;;;;;;;6194482;23;20009;-77
2021/10/11 00:43:47;;;;;;;3.60;2.10;;;;;;;;;;6194736;23;20013;-79
2021/10/11 00:46:52;;;;;;;4.53;2.63;;;;;;;;;;6194719;23;20433;-80
2021/10/11 00:49:56;;;;;;;4.53;2.70;;;;;;;;;;6194397;23;20013;-80
2021/10/11 00:53:00;;;;;;;4.05;2.60;;;;;;;;;;6194818;23;20009;-80
2021/10/11 00:56:05;;;;;;;6.55;2.63;;;;;;;;;;6195006;23;20013;-79
2021/10/11 00:59:09;;;;;;;3.05;2.60;;;;;;;;;;6194913;23;20421;-79
2021/10/11 01:02:13;;;;;;;4.20;2.53;;;;;;;;;;6194719;23;20005;-77
2021/10/11 01:05:17;;;;;;;5.03;2.70;;;;;;;;;;6194842;23;20009;-79
2021/10/11 01:08:22;;;;;;;5.20;2.53;;;;;;;;;;6194863;23;20453;-79
2021/10/11 01:11:26;;;;;;;5.20;2.67;;;;;;;;;;6194757;23;20009;-79
2021/10/11 01:14:30;;;;;;;4.97;2.47;;;;;;;;;;6195045;23;20453;-79
2021/10/11 01:17:35;;;;;;;4.97;2.45;;;;;;;;;;6195078;23;20013;-79
2021/10/11 01:20:39;;;;;;;6.40;3.42;;;;;;;;;;6186365;23;20013;-79
2021/10/11 01:23:43;;;;;;;5.18;2.92;;;;;;;;;;6194652;23;20021;-79
2021/10/11 01:26:48;;;;;;;4.50;3.10;;;;;;;;;;6194594;23;20021;-79
2021/10/11 01:29:52;;;;;;;7.10;3.17;;;;;;;;;;6194552;23;20012;-79
2021/10/11 01:32:57;;;;;;;4.88;3.30;;;;;;;;;;6194583;23;20012;-79
2021/10/11 01:36:01;;;;;;;7.25;3.40;;;;;;;;;;6194326;23;20013;-79
2021/10/11 01:39:07;;;;;;;8.82;3.35;;;;;;;;;;6194367;23;20021;-79
2021/10/11 01:42:15;;;;;;;3.83;2.58;;;;;;;;;;6194215;23;20017;-79
2021/10/11 01:45:19;;;;;;;5.22;3.10;;;;;;;;;;6194282;23;20445;-79
2021/10/11 01:48:23;;;;;;;5.47;3.20;;;;;;;;;;6193943;23;20025;-80
2021/10/11 01:51:28;;;;;;;5.15;2.83;;;;;;;;;;6193875;23;20013;-80
2021/10/11 01:54:32;;;;;;;7.30;3.35;;;;;;;;;;6194117;23;20013;-80
2021/10/11 01:57:37;;;;;;;6.10;3.10;;;;;;;;;;6194133;23;20009;-80
2021/10/11 02:00:41;;;;;;;4.45;2.83;;;;;;;;;;6193884;23;20013;-80
2021/10/11 02:03:45;;;;;;;5.53;3.17;;;;;;;;;;6193106;23;20013;-79
2021/10/11 02:06:50;;;;;;;7.10;3.65;;;;;;;;;;6194002;23;20025;-79
2021/10/11 02:09:55;;;;;;;4.30;2.97;;;;;;;;;;6193793;23;20017;-80
2021/10/11 02:12:59;;;;;;;4.78;3.58;;;;;;;;;;6193823;23;20013;-79
2021/10/11 02:16:03;;;;;;;6.70;3.70;;;;;;;;;;6193866;23;20005;-79
2021/10/11 02:19:09;;;;;;;4.05;3.22;;;;;;;;;;6191699;23;20457;-80
2021/10/11 02:22:14;;;;;;;5.60;3.25;;;;;;;;;;6185108;23;20012;-80
2021/10/11 02:25:19;;;;;;;4.50;3.28;;;;;;;;;;6193882;23;20012;-80
2021/10/11 02:28:25;;;;;;;5.88;3.00;;;;;;;;;;6193582;23;20028;-80
2021/10/11 02:31:30;;;;;;;5.40;3.20;;;;;;;;;;6193728;23;20013;-80
2021/10/11 02:34:35;;;;;;;7.63;3.78;;;;;;;;;;6193723;23;20020;-80
2021/10/11 02:37:39;;;;;;;4.25;3.10;;;;;;;;;;6192539;23;20008;-79
2021/10/11 02:40:43;;;;;;;5.95;3.30;;;;;;;;;;6193587;23;20020;-79
2021/10/11 02:43:48;;;;;;;6.90;3.45;;;;;;;;;;6192687;23;20009;-79
2021/10/11 02:46:52;;;;;;;7.05;3.80;;;;;;;;;;6193454;23;20025;-79
2021/10/11 02:49:56;;;;;;;7.22;3.63;;;;;;;;;;6193224;23;20013;-79
2021/10/11 02:53:01;;;;;;;4.97;3.35;;;;;;;;;;6193598;23;20017;-80
2021/10/11 02:56:05;;;;;;;9.77;4.13;;;;;;;;;;6193600;23;20327;-80
2021/10/11 02:59:09;;;;;;;6.05;3.67;;;;;;;;;;6193001;23;20013;-80
2021/10/11 03:02:14;;;;;;;4.80;3.80;;;;;;;;;;6193430;23;20013;-79
2021/10/11 03:05:19;;;;;;;5.88;3.80;;;;;;;;;;6193534;23;20017;-80
2021/10/11 03:08:25;;;;;;;6.18;3.47;;;;;;;;;;6193212;23;20429;-80
2021/10/11 03:11:30;;;;;;;5.78;3.60;;;;;;;;;;6193401;23;20005;-80
2021/10/11 03:14:34;;;;;;;4.60;3.55;;;;;;;;;;6193386;23;20021;-79
2021/10/11 03:17:39;;;;;;;7.28;4.03;;;;;;;;;;6193243;23;20429;-77
2021/10/11 03:20:43;;;;;;;6.93;3.65;;;;;;;;;;6184351;23;20047;-78
2021/10/11 03:23:49;;;;;;;5.88;3.28;;;;;;;;;;6193495;23;20017;-79
2021/10/11 03:26:53;;;;;;;7.47;3.85;;;;;;;;;;6193491;23;20450;-79
2021/10/11 03:29:57;;;;;;;7.05;5.80;;;;;;;;;;6193045;23;20013;-80
2021/10/11 03:33:02;;;;;;;10.07;4.90;;;;;;;;;;6193376;23;20013;-80
2021/10/11 03:36:07;;;;;;;10.55;5.90;;;;;;;;;;6193901;23;20020;-79
2021/10/11 03:39:12;;;;;;;5.78;5.18;;;;;;;;;;6193139;23;20024;-79
2021/10/11 03:42:16;;;;;;;7.57;5.30;;;;;;;;;;6193736;23;20013;-79
2021/10/11 03:45:20;;;;;;;6.80;4.03;;;;;;;;;;6213724;23;20013;-79
2021/10/11 03:48:25;;;;;;;7.03;4.30;;;;;;;;;;6216282;23;20021;-79
2021/10/11 03:51:30;;;;;;;8.90;3.88;;;;;;;;;;6215962;23;20009;-79
2021/10/11 03:54:34;;;;;;;7.05;4.13;;;;;;;;;;6216709;23;20013;-79
2021/10/11 03:57:39;;;;;;;7.38;4.03;;;;;;;;;;6193499;23;20445;-80
2021/10/11 04:00:43;;;;;;;7.60;3.60;;;;;;;;;;6194393;23;20017;-79
2021/10/11 04:03:49;;;;;;;7.90;4.47;;;;;;;;;;6193253;23;20322;-79
2021/10/11 04:06:56;;;;;;;5.28;3.58;;;;;;;;;;6193432;23;20295;-79
2021/10/11 04:10:04;;;;;;;10.10;3.90;;;;;;;;;;6194029;23;20016;-79
2021/10/11 04:13:09;;;;;;;6.22;4.03;;;;;;;;;;6195633;23;20330;-79
2021/10/11 04:16:13;;;;;;;6.00;4.32;;;;;;;;;;6195783;23;20017;-79
2021/10/11 04:19:17;;;;;;;8.80;4.57;;;;;;;;;;6192687;23;20009;-79
2021/10/11 04:22:22;;;;;;;8.15;3.95;;;;;;;;;;6186329;23;20025;-79
2021/10/11 04:25:25;;;;;;;8.43;4.10;;;;;;;;;;6195567;23;20009;-79
2021/10/11 04:28:30;;;;;;;13.75;6.30;;;;;;;;;;6195825;23;20025;-79
2021/10/11 04:31:34;;;;;;;7.32;4.40;;;;;;;;;;6194187;23;20457;-79
2021/10/11 04:34:38;;;;;;;12.68;4.45;;;;;;;;;;6195088;23;20012;-77
2021/10/11 04:37:43;;;;;;;7.55;4.45;;;;;;;;;;6195208;23;20020;-80
2021/10/11 04:40:47;;;;;;;7.88;4.15;;;;;;;;;;6195120;23;20017;-79
2021/10/11 04:43:52;;;;;;;12.07;4.75;;;;;;;;;;6195099;23;20009;-79
2021/10/11 04:46:58;;;;;;;5.95;4.22;;;;;;;;;;6195039;23;20345;-79
2021/10/11 04:50:03;;;;;;;6.13;4.22;;;;;;;;;;6194905;23;20013;-79
2021/10/11 04:53:09;;;;;;;7.45;4.03;;;;;;;;;;6194821;23;20017;-80
2021/10/11 04:56:13;;;;;;;9.57;4.13;;;;;;;;;;6195006;23;20013;-79
2021/10/11 04:59:17;;;;;;;8.70;4.03;;;;;;;;;;6194756;23;20005;-79
2021/10/11 05:02:22;;;;;;;9.13;4.35;;;;;;;;;;6176460;23;20080;-79
2021/10/11 05:05:26;;;;;;;19.63;5.45;;;;;;;;;;6194592;23;20012;-79
2021/10/11 05:08:30;;;;;;;13.88;5.07;;;;;;;;;;6194727;23;20032;-79
2021/10/11 05:11:35;;;;;;;6.30;4.03;;;;;;;;;;6194698;23;20021;-80
2021/10/11 05:14:39;;;;;;;8.45;5.32;;;;;;;;;;6193720;23;20314;-79
2021/10/11 05:17:44;;;;;;;6.25;4.75;;;;;;;;;;6194570;23;20009;-79
2021/10/11 05:20:50;;;;;;;10.23;4.32;;;;;;;;;;6184933;23;20012;-66
2021/10/11 05:23:54;;;;;;;14.50;5.50;;;;;;;;;;6194305;23;20024;-64
2021/10/11 05:26:59;;;;;;;9.63;5.47;;;;;;;;;;6194036;23;20024;-65
2021/10/11 05:30:04;;;;;;;18.73;6.20;;;;;;;;;;6193924;23;20326;-65
2021/10/11 05:33:09;;;;;;;7.63;4.85;;;;;;;;;;6194164;23;20020;-64
2021/10/11 05:36:13;;;;;;;13.40;5.28;;;;;;;;;;6194048;23;20441;-67
2021/10/11 05:39:18;;;;;;;12.35;6.15;;;;;;;;;;6194136;23;20024;-67
2021/10/11 05:42:23;;;;;;;8.95;5.38;;;;;;;;;;6194127;23;20462;-67
2021/10/11 05:45:27;;;;;;;10.38;6.32;;;;;;;;;;6193877;23;20017;-65
2021/10/11 05:48:32;;;;;;;19.08;7.57;;;;;;;;;;6193894;23;20024;-64
2021/10/11 05:51:36;;;;;;;13.98;6.93;;;;;;;;;;6193906;23;20460;-65
2021/10/11 05:54:40;;;;;;;11.07;7.05;;;;;;;;;;6193765;23;20369;-65
2021/10/11 05:57:45;;;;;;;13.35;7.10;;;;;;;;;;6193741;23;20260;-65
2021/10/11 06:00:49;;;;;;;9.68;6.63;;;;;;;;;;6193798;23;20020;-65
2021/10/11 06:03:53;;;;;;;10.45;6.35;;;;;;;;;;6192864;23;20520;-65
2021/10/11 06:06:58;;;;;;;11.52;5.75;;;;;;;;;;6193612;23;20053;-65
2021/10/11 06:10:03;;;;;;;15.00;6.18;;;;;;;;;;6193754;23;20020;-65
2021/10/11 06:13:07;;;;;;;12.25;5.55;;;;;;;;;;6193859;23;20024;-66
2021/10/11 06:16:12;;;;;;;8.90;5.05;;;;;;;;;;6193703;23;20016;-66
2021/10/11 06:19:17;;;;;;;16.33;6.68;;;;;;;;;;6189614;23;20310;-66
2021/10/11 06:22:21;;;;;;;9.77;5.70;;;;;;;;;;6184398;23;20032;-66
2021/10/11 06:25:26;;;;;;;13.48;5.70;;;;;;;;;;6193454;23;20013;-66
2021/10/11 06:28:30;;;;;;;8.90;5.43;;;;;;;;;;6193355;23;20044;-66
2021/10/11 06:31:34;;;;;;;10.15;5.00;;;;;;;;;;6193372;23;20021;-65
2021/10/11 06:34:40;;;;;;;10.48;4.97;;;;;;;;;;6193144;23;20028;-65
2021/10/11 06:37:44;;;;;;;6.50;4.65;;;;;;;;;;6193595;23;20015;-65
2021/10/11 06:40:51;;;;;;;10.85;5.78;;;;;;;;;;6193562;23;20013;-67
2021/10/11 06:43:56;;;;;;;9.02;5.47;;;;;;;;;;6193273;23;20020;-67
2021/10/11 06:47:00;;;;;;;8.13;6.03;;;;;;;;;;6193083;23;20013;-67
2021/10/11 06:50:05;;;;;;;13.77;6.57;;;;;;;;;;6193296;23;20020;-67
2021/10/11 06:53:09;;;;;;;12.18;6.57;;;;;;;;;;6192326;23;20016;-67
2021/10/11 06:56:13;;;;;;;14.35;6.88;;;;;;;;;;6193401;23;20464;-68
2021/10/11 06:59:17;;;;;;;9.75;7.00;;;;;;;;;;6193361;23;20028;-68
2021/10/11 07:02:21;;;;;;;16.35;7.80;;;;;;;;;;6193494;23;20009;-66
2021/10/11 07:05:26;;;;;;;12.75;7.18;;;;;;;;;;6193474;23;20026;-66
2021/10/11 07:08:30;;;;;;;7.40;5.35;;;;;;;;;;6193287;23;20028;-68
2021/10/11 07:11:36;;;;;;;11.90;5.40;;;;;;;;;;6193024;23;20009;-68
2021/10/11 07:14:40;;;;;;;10.90;6.35;;;;;;;;;;6193132;23;20020;-67
2021/10/11 07:17:44;;;;;;;7.97;6.00;;;;;;;;;;6193043;23;20168;-68
2021/10/11 07:20:48;;;;;;;12.38;6.13;;;;;;;;;;6190216;23;20315;-68
2021/10/11 07:23:53;;;;;;;9.20;6.03;;;;;;;;;;6193164;23;20081;-68
2021/10/11 07:26:57;;;;;;;9.68;6.13;;;;;;;;;;6192955;23;20021;-67
2021/10/11 07:30:01;;;;;;;15.23;6.35;;;;;;;;;;6193238;23;20017;-68
2021/10/11 07:33:07;;;;;;;13.25;6.03;;;;;;;;;;6193119;23;20016;-67
2021/10/11 07:36:11;;;;;;;13.20;6.70;;;;;;;;;;6193121;23;20024;-67
2021/10/11 07:39:16;;;;;;;14.15;7.00;;;;;;;;;;6192970;23;20022;-67
2021/10/11 07:42:20;;;;;;;14.63;6.57;;;;;;;;;;6193027;23;20016;-67
2021/10/11 07:45:24;;;;;;;15.35;5.93;;;;;;;;;;6192964;23;20016;-68
2021/10/11 07:48:29;;;;;;;10.77;4.53;;;;;;;;;;6192925;23;20036;-67
2021/10/11 07:51:33;;;;;;;13.02;4.32;;;;;;;;;;6193213;23;20020;-67
2021/10/11 07:54:38;;;;;;;12.18;4.93;;;;;;;;;;6192700;23;20022;-71
2021/10/11 07:57:45;;;;;;;7.75;4.45;;;;;;;;;;6193462;23;20016;-67
2021/10/11 08:00:49;;;;;;;9.68;3.42;;;;;;;;;;6192987;23;20013;-67
2021/10/11 08:03:54;;;;;;;7.57;3.50;;;;;;;;;;6193129;23;20009;-67
2021/10/11 08:06:58;;;;;;;10.50;3.75;;;;;;;;;;6192866;23;20017;-66
2021/10/11 08:10:03;;;;;;;7.70;4.00;;;;;;;;;;6192700;23;20028;-69
2021/10/11 08:13:07;;;;;;;8.68;4.22;;;;;;;;;;6192985;23;20310;-69
2021/10/11 08:16:11;;;;;;;5.80;3.67;;;;;;;;;;6193034;23;20013;-69
2021/10/11 08:19:16;;;;;;;12.60;3.88;;;;;;;;;;6187785;23;20017;-69
2021/10/11 08:22:21;;;;;;;12.25;3.72;;;;;;;;;;6183846;23;20020;-69
2021/10/11 08:25:26;;;;;;;7.05;3.10;;;;;;;;;;6192785;23;20024;-68
2021/10/11 08:28:30;;;;;;;13.98;3.90;;;;;;;;;;6191808;23;20457;-65
2021/10/11 08:31:35;;;;;;;14.52;4.82;;;;;;;;;;6192635;23;20020;-68
2021/10/11 08:34:39;;;;;;;8.07;4.80;;;;;;;;;;6192872;23;20464;-68
2021/10/11 08:37:43;;;;;;;11.82;4.78;;;;;;;;;;6192863;23;20013;-67
2021/10/11 08:40:49;;;;;;;13.98;5.03;;;;;;;;;;6192847;23;20492;-68
2021/10/11 08:43:53;;;;;;;14.20;5.63;;;;;;;;;;6192754;23;20020;-66
2021/10/11 08:46:59;;;;;;;15.07;5.50;;;;;;;;;;6192617;23;20020;-67
2021/10/11 08:50:04;;;;;;;10.30;4.70;;;;;;;;;;6192749;23;20047;-68
2021/10/11 08:53:14;;;;;;;6.82;4.10;;;;;;;;;;6192621;23;20020;-67
2021/10/11 08:56:18;;;;;;;7.35;3.90;;;;;;;;;;6193478;23;20016;-67
2021/10/11 08:59:28;;;;;;;8.15;3.33;;;;;;;;;;6194491;23;20429;-67
2021/10/11 09:02:33;;;;;;;7.95;2.97;;;;;;;;;;6194620;23;20009;-85
2021/10/11 09:05:40;;;;;;;9.15;3.28;;;;;;;;;;6194381;23;20017;-67
2021/10/11 09:08:44;;;;;;;7.25;2.85;;;;;;;;;;6194052;23;20025;-67
2021/10/11 09:11:48;;;;;;;5.55;2.97;;;;;;;;;;6194244;23;20008;-69
2021/10/11 09:15:03;;;;;;;5.75;2.63;;;;;;;;;;6194498;23;20449;-69
2021/10/11 09:18:07;;;;;;;5.05;2.35;;;;;;;;;;6193302;23;20009;-67
2021/10/11 09:21:15;;;;;;;4.28;2.67;;;;;;;;;;6189842;23;20461;-68
2021/10/11 09:24:20;;;;;;;5.65;2.88;;;;;;;;;;6194159;23;20013;-67
2021/10/11 09:27:24;;;;;;;5.45;2.53;;;;;;;;;;6193034;23;20449;-68
2021/10/11 09:30:31;;;;;;;5.28;2.97;;;;;;;;;;6194072;23;20323;-68
2021/10/11 09:33:35;;;;;;;4.50;2.03;;;;;;;;;;6193913;23;20017;-68
2021/10/11 09:36:40;;;;;;;4.47;1.65;;;;;;;;;;6193865;23;20017;-68
2021/10/11 09:39:44;;;;;;;9.77;1.73;;;;;;;;;;6193856;23;20021;-68
2021/10/11 09:42:49;;;;;;;3.00;1.80;;;;;;;;;;6193900;23;20013;-68
2021/10/11 09:45:54;;;;;;;1.75;1.08;;;;;;;;;;6193949;23;20441;-67
2021/10/11 09:48:59;;;;;;;2.47;1.17;;;;;;;;;;6193612;23;20025;-69
2021/10/11 09:52:03;;;;;;;2.88;1.55;;;;;;;;;;6192860;23;20009;-68
2021/10/11 09:55:08;;;;;;;2.25;1.20;;;;;;;;;;6193905;23;20441;-70
2021/10/11 09:58:13;;;;;;;3.00;1.40;;;;;;;;;;6193796;23;20013;-67
2021/10/11 10:01:17;;;;;;;1.40;1.30;;;;;;;;;;6193632;23;20012;-67
2021/10/11 10:04:34;;;;;;;4.25;1.38;;;;;;;;;;6193486;23;20013;-67
2021/10/11 10:07:41;;;;;;;2.65;1.20;;;;;;;;;;6191907;23;20476;-67
2021/10/11 10:10:48;;;;;;;4.55;1.30;;;;;;;;;;6193567;23;20013;-66
2021/10/11 10:13:53;;;;;;;4.28;1.50;;;;;;;;;;6193228;23;20013;-67
2021/10/11 10:16:59;;;;;;;6.13;1.55;;;;;;;;;;6192594;23;20013;-68
2021/10/11 10:20:11;;;;;;;2.88;1.50;;;;;;;;;;6183792;23;20017;-68
2021/10/11 10:23:17;;;;;;;;;;;;;;;;;;6194362;23;20025;-68
2021/10/11 10:26:26;;;;;;;2.65;1.60;;;;;;;;;;6193764;23;19912;-68
2021/10/11 10:29:40;;;;;;;4.25;1.40;;;;;;;;;;6193609;23;20029;-67
2021/10/11 10:32:54;;;;;;;2.80;1.20;;;;;;;;;;6193466;23;20013;-67
2021/10/11 10:35:58;;;;;;;2.38;1.10;;;;;;;;;;6193571;23;20017;-67
2021/10/11 10:39:03;;;;;;;3.85;1.48;;;;;;;;;;6193362;23;20013;-67
2021/10/11 10:42:08;;;;;;;2.40;1.20;;;;;;;;;;6193565;23;20013;-68
2021/10/11 10:45:20;;;;;;;3.75;1.10;;;;;;;;;;6193615;23;20425;-67
2021/10/11 10:48:25;;;;;;;3.30;1.65;;;;;;;;;;6193144;23;20025;-67
2021/10/11 10:51:30;;;;;;;4.15;1.20;;;;;;;;;;6193624;23;20434;-67
2021/10/11 10:54:35;;;;;;;1.63;1.40;;;;;;;;;;6193336;23;20009;-68
2021/10/11 10:57:40;;;;;;;3.38;1.02;;;;;;;;;;6193427;23;20017;-68
2021/10/11 11:00:45;;;;;;;3.60;0.98;;;;;;;;;;6193464;23;20013;-67
2021/10/11 11:03:49;;;;;;;1.80;0.82;;;;;;;;;;6193204;23;20017;-68
2021/10/11 11:07:04;;;;;;;1.83;0.70;;;;;;;;;;6193276;23;20013;-67
2021/10/11 11:10:12;;;;;;;0.95;0.60;;;;;;;;;;6193227;23;20020;-68
2021/10/11 11:13:17;;;;;;;3.97;1.40;;;;;;;;;;6193451;23;20009;-68
2021/10/11 11:16:28;;;;;;;5.97;2.17;;;;;;;;;;6193357;23;20013;-67
2021/10/11 11:19:36;;;;;;;1.20;0.93;;;;;;;;;;6184573;23;20323;-68
2021/10/11 11:22:42;;;;;;;5.72;1.13;;;;;;;;;;6193072;23;20021;-68
2021/10/11 11:25:47;;;;;;;1.52;1.10;;;;;;;;;;6193122;23;20564;-68
2021/10/11 11:28:55;;;;;;;1.27;0.75;;;;;;;;;;6192836;23;20017;-68
2021/10/11 11:31:59;;;;;;;2.13;0.95;;;;;;;;;;6192988;23;20013;-67
2021/10/11 11:35:04;;;;;;;2.95;0.90;;;;;;;;;;6192920;23;20013;-67
2021/10/11 11:38:12;;;;;;;2.58;0.80;;;;;;;;;;6193283;23;20318;-68
2021/10/11 11:41:16;;;;;;;1.55;0.85;;;;;;;;;;6193222;23;20036;-68
2021/10/11 11:44:27;;;;;;;5.70;1.00;;;;;;;;;;6192895;23;20009;-68
2021/10/11 11:47:31;;;;;;;4.18;1.10;;;;;;;;;;6193008;23;20013;-67
2021/10/11 11:50:36;;;;;;;2.05;0.90;;;;;;;;;;6192878;23;20016;-68
2021/10/11 11:53:42;;;;;;;4.85;0.85;;;;;;;;;;6193092;23;20009;-67
2021/10/11 11:56:54;;;;;;;2.40;0.80;;;;;;;;;;6193051;23;20017;-68
2021/10/11 11:59:59;;;;;;;2.33;1.00;;;;;;;;;;6192849;23;20017;-68
2021/10/11 12:03:03;;;;;;;1.10;0.80;;;;;;;;;;6192512;23;20013;-67
2021/10/11 12:06:08;;;;;;;4.53;2.13;;;;;;;;;;6189967;23;20013;-68
2021/10/11 12:09:13;;;;;;;3.17;1.65;;;;;;;;;;6192760;23;20028;-68
2021/10/11 12:12:18;;;;;;;5.97;1.98;;;;;;;;;;6193072;23;20009;-68
2021/10/11 12:15:22;;;;;;;6.93;2.58;;;;;;;;;;6193069;23;20013;-68
2021/10/11 12:18:34;;;;;;;6.15;2.60;;;;;;;;;;6189074;23;20017;-68
2021/10/11 12:21:39;;;;;;;5.32;2.95;;;;;;;;;;6186051;23;20032;-68
2021/10/11 12:24:43;;;;;;;7.82;3.25;;;;;;;;;;6191578;23;20310;-68
2021/10/11 12:27:51;;;;;;;2.92;2.15;;;;;;;;;;6191507;23;20461;-67
2021/10/11 12:31:00;;;;;;;16.33;3.42;;;;;;;;;;6191938;23;20017;-68
2021/10/11 12:34:08;;;;;;;4.63;1.98;;;;;;;;;;6193131;23;20022;-67
2021/10/11 12:37:14;;;;;;;3.83;1.83;;;;;;;;;;6192772;23;20354;-66
2021/10/11 12:40:21;;;;;;;2.97;1.45;;;;;;;;;;6192793;23;20017;-69
2021/10/11 12:43:26;;;;;;;2.10;1.10;;;;;;;;;;6192735;23;20013;-69
2021/10/11 12:46:40;;;;;;;6.25;1.55;;;;;;;;;;6192804;23;20005;-66
2021/10/11 12:49:47;;;;;;;2.13;1.30;;;;;;;;;;6192172;23;20021;-67
2021/10/11 12:52:51;;;;;;;3.05;1.30;;;;;;;;;;6192465;23;20013;-68
2021/10/11 12:55:56;;;;;;;2.35;1.20;;;;;;;;;;6192656;23;20017;-69
2021/10/11 12:59:01;;;;;;;8.82;1.85;;;;;;;;;;6192286;23;20005;-68
2021/10/11 13:02:06;;;;;;;8.32;2.30;;;;;;;;;;6192576;23;20013;-66
2021/10/11 13:05:11;;;;;;;3.00;1.35;;;;;;;;;;6192750;23;20013;-67
2021/10/11 13:08:16;;;;;;;4.07;1.77;;;;;;;;;;6192320;23;20013;-65
2021/10/11 13:11:20;;;;;;;5.25;1.95;;;;;;;;;;6192522;23;20013;-68
2021/10/11 13:14:25;;;;;;;2.90;1.75;;;;;;;;;;6192645;23;20483;-69
2021/10/11 13:17:29;;;;;;;2.05;1.52;;;;;;;;;;6191251;23;20013;-70
2021/10/11 13:20:36;;;;;;;4.60;1.50;;;;;;;;;;6139808;23;1199098;-70
2021/10/11 13:23:43;;;;;;;5.43;1.50;;;;;;;;;;6194185;23;20453;-68
2021/10/11 13:26:47;;;;;;;4.53;1.42;;;;;;;;;;6194260;23;20009;-68
2021/10/11 14:30:08;;;;;;;5.60;1.60;;;;;;;;;;6192919;23;20441;-67
2021/10/11 15:55:08;;;;;;;3.92;2.08;;;;;;;;;;6162214;23;20010;-67
2021/10/11 16:01:17;;;;;;;3.20;1.52;;;;;;;;;;6192852;23;20319;-67
2021/10/11 16:04:22;;;;;;;6.00;2.28;;;;;;;;;;6192594;23;20009;-67
2021/10/11 16:07:26;;;;;;;3.47;2.10;;;;;;;;;;6194756;23;20104;-70
2021/10/11 16:10:31;;;;;;;7.72;2.05;;;;;;;;;;6194531;23;20025;-69
2021/10/11 16:13:35;;;;;;;4.45;1.60;;;;;;;;;;6194664;23;20315;-68
2021/10/11 16:16:39;;;;;;;3.90;1.60;;;;;;;;;;6194269;23;20013;-68
2021/10/11 16:19:44;;;;;;;3.45;1.60;;;;;;;;;;6194658;23;20005;-66
2021/10/11 16:22:48;;;;;;;4.78;1.80;;;;;;;;;;6194819;23;20017;-66
2021/10/11 16:25:54;;;;;;;4.45;1.73;;;;;;;;;;6194615;23;20013;-65
2021/10/11 16:28:58;;;;;;;6.05;2.10;;;;;;;;;;6194301;23;20327;-65
2021/10/11 16:32:02;;;;;;;3.58;1.75;;;;;;;;;;6193653;23;20009;-67
2021/10/11 16:35:07;;;;;;;4.82;1.90;;;;;;;;;;6194387;23;20409;-70
2021/10/11 16:38:11;;;;;;;7.35;2.60;;;;;;;;;;6194327;23;20005;-67
2021/10/11 16:41:16;;;;;;;6.30;1.90;;;;;;;;;;6194360;23;20017;-69
2021/10/11 16:44:20;;;;;;;5.47;2.72;;;;;;;;;;6194232;23;20009;-67
2021/10/11 16:47:25;;;;;;;6.15;3.03;;;;;;;;;;6194112;23;20327;-66
2021/10/11 16:50:29;;;;;;;7.47;2.28;;;;;;;;;;6194035;23;20056;-66
2021/10/11 16:57:00;;;;;;;5.53;2.75;;;;;;;;;;6192591;23;20017;-67
2021/10/11 17:00:05;;;;;;;8.48;2.75;;;;;;;;;;6193695;23;20438;-65
2021/10/11 17:03:09;;;;;;;7.50;2.70;;;;;;;;;;6191860;23;20017;-65
2021/10/11 17:06:14;;;;;;;6.00;2.30;;;;;;;;;;6193649;23;20009;-66
2021/10/11 17:09:18;;;;;;;8.05;2.58;;;;;;;;;;6193724;23;20025;-66
2021/10/11 17:12:22;;;;;;;7.60;3.47;;;;;;;;;;6194041;23;20077;-66
2021/10/11 17:15:27;;;;;;;7.85;2.60;;;;;;;;;;6193823;23;20009;-65
2021/10/11 17:18:31;;;;;;;8.07;3.20;;;;;;;;;;6183974;23;20013;-67
2021/10/11 17:21:36;;;;;;;6.60;2.58;;;;;;;;;;6188029;23;20021;-66
2021/10/11 17:24:40;;;;;;;9.60;3.63;;;;;;;;;;6193562;23;20017;-65
2021/10/11 17:27:45;;;;;;;6.65;2.90;;;;;;;;;;6192701;23;20005;-66
2021/10/11 17:30:49;;;;;;;7.15;3.50;;;;;;;;;;6193905;23;20025;-68
2021/10/11 17:33:54;;;;;;;7.97;3.47;;;;;;;;;;6194102;23;20013;-66
2021/10/11 17:36:58;;;;;;;8.90;3.95;;;;;;;;;;6194126;23;20017;-66
2021/10/11 17:40:03;;;;;;;11.13;4.00;;;;;;;;;;6193746;23;20013;-64
2021/10/11 17:43:10;;;;;;;9.82;3.33;;;;;;;;;;6193684;23;20020;-64
2021/10/11 17:46:14;;;;;;;11.38;3.97;;;;;;;;;;6193868;23;20013;-64
2021/10/11 17:49:18;;;;;;;9.27;3.00;;;;;;;;;;6193720;23;20048;-65
2021/10/11 17:52:23;;;;;;;9.45;2.85;;;;;;;;;;6192946;23;20005;-64
2021/10/11 17:55:27;;;;;;;12.00;4.50;;;;;;;;;;6193902;23;20064;-64
2021/10/11 17:58:32;;;;;;;7.43;2.97;;;;;;;;;;6193797;23;20024;-66
2021/10/11 18:01:35;;;;;;;6.55;2.75;;;;;;;;;;6193842;23;20009;-66
2021/10/11 18:04:40;;;;;;;5.75;2.90;;;;;;;;;;6193552;23;20449;-66
2021/10/11 18:07:44;;;;;;;11.75;3.40;;;;;;;;;;6193714;23;20319;-80
2021/10/11 18:10:49;;;;;;;9.00;2.90;;;;;;;;;;6193875;23;20024;-79
2021/10/11 18:13:53;;;;;;;13.32;3.92;;;;;;;;;;6193910;23;20009;-80
2021/10/11 18:16:57;;;;;;;10.63;4.18;;;;;;;;;;6190014;23;20017;-80
2021/10/11 18:20:04;;;;;;;9.50;4.82;;;;;;;;;;6193876;23;20016;-80
2021/10/11 18:23:08;;;;;;;17.58;5.30;;;;;;;;;;6193874;23;20021;-80
2021/10/11 18:26:12;;;;;;;13.35;5.55;;;;;;;;;;6192872;23;20464;-81
2021/10/11 18:29:18;;;;;;;13.82;5.80;;;;;;;;;;6193299;23;20032;-81
2021/10/11 18:32:22;;;;;;;20.80;6.63;;;;;;;;;;6193771;23;20016;-79
2021/10/11 18:35:27;;;;;;;16.58;6.10;;;;;;;;;;6193462;23;20472;-79
2021/10/11 18:38:31;;;;;;;20.30;6.07;;;;;;;;;;6193239;23;20020;-81
2021/10/11 18:41:35;;;;;;;15.43;5.65;;;;;;;;;;6193617;23;20128;-81
2021/10/11 18:44:40;;;;;;;18.63;6.20;;;;;;;;;;6193749;23;20020;-81
2021/10/11 18:47:46;;;;;;;12.93;6.85;;;;;;;;;;6193542;23;20334;-80
2021/10/11 18:50:51;;;;;;;13.27;6.18;;;;;;;;;;6193614;23;20032;-80
2021/10/11 18:53:57;;;;;;;11.20;6.25;;;;;;;;;;6193653;23;20015;-81
2021/10/11 18:57:01;;;;;;;16.17;6.05;;;;;;;;;;6193581;23;20040;-80
2021/10/11 19:00:06;;;;;;;20.05;6.45;;;;;;;;;;6193498;23;20024;-79
2021/10/11 19:03:10;;;;;;;15.00;6.50;;;;;;;;;;6193316;23;20024;-80
2021/10/11 19:06:15;;;;;;;12.68;6.57;;;;;;;;;;6193546;23;20381;-80
2021/10/11 19:09:20;;;;;;;18.20;6.13;;;;;;;;;;6193146;23;20032;-80
2021/10/11 19:12:24;;;;;;;17.67;7.78;;;;;;;;;;6193455;23;20020;-80
2021/10/11 19:15:29;;;;;;;19.23;7.07;;;;;;;;;;6193268;23;20019;-80
2021/10/11 19:18:33;;;;;;;24.00;8.02;;;;;;;;;;6193128;23;20333;-80
2021/10/11 19:21:38;;;;;;;22.50;8.60;;;;;;;;;;6186924;23;20024;-80
2021/10/11 19:24:42;;;;;;;17.60;9.02;;;;;;;;;;6193125;23;20028;-80
2021/10/11 19:27:46;;;;;;;20.10;10.38;;;;;;;;;;6193134;23;20017;-81
2021/10/11 19:30:50;;;;;;;14.90;7.10;;;;;;;;;;6192431;23;20028;-79
2021/10/11 19:33:55;;;;;;;14.00;7.95;;;;;;;;;;6193128;23;20020;-79
2021/10/11 19:37:00;;;;;;;18.27;6.68;;;;;;;;;;6193198;23;20494;-79
2021/10/11 19:40:06;;;;;;;11.20;6.82;;;;;;;;;;6192904;23;20020;-79
2021/10/11 19:43:11;;;;;;;15.05;6.25;;;;;;;;;;6193084;23;20017;-79
2021/10/11 19:46:15;;;;;;;15.68;6.95;;;;;;;;;;6175128;23;20484;-79
2021/10/11 19:49:20;;;;;;;20.00;8.68;;;;;;;;;;6192822;23;20342;-79
2021/10/11 19:52:24;;;;;;;25.30;10.20;;;;;;;;;;6192944;23;20019;-79
2021/10/11 19:55:29;;;;;;;17.20;8.43;;;;;;;;;;6192869;23;20456;-79
2021/10/11 19:58:35;;;;;;;17.95;8.02;;;;;;;;;;6192891;23;20024;-79
2021/10/11 20:01:39;;;;;;;14.00;8.55;;;;;;;;;;6192856;23;20338;-79
2021/10/11 20:04:43;;;;;;;17.95;8.73;;;;;;;;;;6192813;23;20024;-79
2021/10/11 20:07:47;;;;;;;17.90;9.55;;;;;;;;;;6192824;23;20020;-79
2021/10/11 20:10:52;;;;;;;18.27;9.25;;;;;;;;;;6192965;23;20346;-79
2021/10/11 20:13:56;;;;;;;18.58;9.48;;;;;;;;;;6192701;23;20016;-79
2021/10/11 20:17:01;;;;;;;16.23;8.95;;;;;;;;;;6188305;23;20024;-79
2021/10/11 20:20:06;;;;;;;14.32;7.82;;;;;;;;;;6193161;23;20024;-79
2021/10/11 20:23:10;;;;;;;15.40;8.63;;;;;;;;;;6192692;23;20036;-79
2021/10/11 20:26:15;;;;;;;13.40;8.02;;;;;;;;;;6192847;23;20020;-79
2021/10/11 20:29:21;;;;;;;15.50;9.10;;;;;;;;;;6192647;23;20032;-79
2021/10/11 20:32:26;;;;;;;16.33;7.32;;;;;;;;;;6192953;23;20456;-79
2021/10/11 20:35:30;;;;;;;16.35;8.38;;;;;;;;;;6192732;23;20020;-79
2021/10/11 20:38:35;;;;;;;10.43;6.80;;;;;;;;;;6192737;23;20020;-79
2021/10/11 20:41:39;;;;;;;13.68;7.10;;;;;;;;;;6192738;23;20020;-79
2021/10/11 20:44:43;;;;;;;12.13;6.93;;;;;;;;;;6192720;23;20017;-79
2021/10/11 20:47:47;;;;;;;11.85;6.60;;;;;;;;;;6192545;23;20024;-79
2021/10/11 20:50:52;;;;;;;15.82;7.10;;;;;;;;;;6192973;23;20028;-78